High wind

Not for real navigation. The accuracy of this data is not assured See disclaimer for more information



ICAO NAME COUNTRY WIND Kt GUST Kt VIS m TEMP/DEW C BARO METAR
CWBY Port Menier, Que. Canada 36 0 9999 14/14 29.92 CWBY 281200Z AUTO 00036KT 14/14 RMK AO1 1005 SLP030 T01410137 50044
KMWN Mount Washington NH United States 33 42 9999 7/7 29.92 KMWN 281151Z 30033G42KT 0SM FG VV000 07/07 RMK 60008 70036 10094 20068
CYAS Kangirsuk Supplementary Aviati Canada 29 36 16000 7/6 29.61 CYAS 281200Z 02029G36KT 10SM -RA BKN006 OVC025 07/06 A2961 RMK ST5SC3 SLP035
KNOZ 29 35 6400 31/23 29.84 KNOZ 281159Z AUTO 15029G35KT 4SM HZ FEW016 31/23 A2984 RMK AO2 PK WND 16035/1157 SLP052 T03060228 10
YLHI 28 42 4000 12/11 30.03 YLHI 281225Z AUTO 24028G42KT 4000 // SCT041 SCT063 SCT097 12/11 Q1017

Show more